Terminal Aerodrome Forecast
Issued by NWS

Home | Current Version | Previous Version | Text Only | Print | Product List | Glossary On
Versions: 1 2 3 4 5 6 7 8 9 10 11 12 13 14 15 16 17 18
000
FTUS41 KBTV 261131
TAFRUT
TAF
KRUT 261131Z 2612/2712 10006KT P6SM OVC250
     FM261600 09006KT P6SM BKN120 OVC200
     FM262200 08007KT P6SM BKN070 OVC120
     FM270600 03008KT 2SM -SN BR BKN022 OVC035
      AMD LTD TO CLD VIS AND WIND=

USA.gov is the U.S. government's official web portal to all federal, state and local government web resources and services.